createdAt,value
2019-02-18T00:01:03.811Z,36.28
2019-02-18T00:02:38.186Z,35.28
2019-02-18T00:04:12.693Z,35.45
2019-02-18T00:05:47.105Z,33.80
2019-02-18T00:07:21.748Z,33.70
2019-02-18T00:08:56.716Z,36.58
2019-02-18T00:10:31.156Z,36.95
2019-02-18T00:12:05.553Z,36.95
2019-02-18T00:13:39.979Z,36.45
2019-02-18T00:15:14.491Z,38.15
2019-02-18T00:16:48.950Z,39.25
2019-02-18T00:18:23.630Z,39.27
2019-02-18T00:19:58.015Z,37.25
2019-02-18T00:21:32.746Z,35.75
2019-02-18T00:23:07.380Z,36.23
2019-02-18T00:24:41.760Z,35.83
2019-02-18T00:26:16.138Z,34.05
2019-02-18T00:27:50.802Z,36.17
2019-02-18T00:29:25.422Z,34.03
2019-02-18T00:30:59.867Z,35.73
2019-02-18T00:32:34.587Z,36.23
2019-02-18T00:34:09.055Z,33.90
2019-02-18T00:35:43.790Z,33.90
2019-02-18T00:37:24.364Z,32.78
2019-02-18T00:38:54.267Z,36.05
2019-02-18T00:40:28.924Z,35.55
2019-02-18T00:42:03.424Z,34.83
2019-02-18T00:43:37.794Z,35.55
2019-02-18T00:45:12.303Z,32.73
2019-02-18T00:46:47.026Z,32.38
2019-02-18T00:48:21.395Z,31.85
2019-02-18T00:49:56.076Z,31.75
2019-02-18T00:51:30.483Z,31.12
2019-02-18T00:53:04.858Z,30.77
2019-02-18T00:54:39.236Z,31.15
2019-02-18T00:56:13.945Z,32.03
2019-02-18T00:57:48.598Z,29.07
2019-02-18T00:59:23.234Z,29.70
2019-02-18T01:00:57.862Z,28.73
2019-02-18T01:02:32.511Z,27.58
2019-02-18T01:04:07.640Z,27.77
2019-02-18T01:05:42.084Z,25.27
2019-02-18T01:07:16.538Z,25.60
2019-02-18T01:08:51.194Z,24.82
2019-02-18T01:10:26.083Z,24.77
2019-02-18T01:12:00.931Z,23.22
2019-02-18T01:13:35.558Z,23.32
2019-02-18T01:15:11.211Z,22.22
2019-02-18T01:16:45.632Z,23.30
2019-02-18T01:18:20.414Z,21.42
2019-02-18T01:19:54.842Z,22.15
2019-02-18T01:21:29.477Z,22.65
2019-02-18T01:23:04.010Z,26.05
2019-02-18T01:24:38.647Z,24.95
2019-02-18T01:26:13.148Z,25.90
2019-02-18T01:27:47.530Z,27.40
2019-02-18T01:29:22.204Z,27.42
2019-02-18T01:30:56.654Z,33.15
2019-02-18T01:32:31.030Z,34.15
2019-02-18T01:34:05.687Z,28.87
2019-02-18T01:35:40.132Z,28.00
2019-02-18T01:37:14.651Z,33.75
2019-02-18T01:38:49.020Z,32.00
2019-02-18T01:40:23.696Z,33.58
2019-02-18T01:41:58.399Z,31.30
2019-02-18T01:43:32.770Z,30.25
2019-02-18T01:45:08.335Z,30.40
2019-02-18T01:46:42.967Z,31.93
2019-02-18T01:48:17.684Z,29.63
2019-02-18T01:49:52.131Z,27.35
2019-02-18T01:51:27.018Z,22.70
2019-02-18T01:53:01.851Z,27.35
2019-02-18T01:54:36.380Z,26.35
2019-02-18T01:56:11.167Z,24.45
2019-02-18T01:57:45.587Z,21.27
2019-02-18T01:59:19.986Z,19.87
2019-02-18T02:00:54.436Z,20.15
2019-02-18T02:02:29.135Z,22.02
2019-02-18T02:04:03.800Z,19.12
2019-02-18T02:05:38.419Z,21.60
2019-02-18T02:07:12.799Z,22.77
2019-02-18T02:08:47.177Z,21.37
2019-02-18T02:10:21.581Z,22.65
2019-02-18T02:11:55.955Z,30.35
2019-02-18T02:13:34.897Z,25.32
2019-02-18T02:15:15.752Z,23.18
2019-02-18T02:16:50.470Z,25.82
2019-02-18T02:18:25.544Z,26.12
2019-02-18T02:20:00.398Z,24.52
2019-02-18T02:21:35.219Z,24.23
2019-02-18T02:23:10.524Z,25.62
2019-02-18T02:24:45.566Z,28.62
2019-02-18T02:26:20.698Z,27.45
2019-02-18T02:27:55.496Z,24.55
2019-02-18T02:29:30.561Z,23.98
2019-02-18T02:31:05.955Z,25.05
2019-02-18T02:32:40.797Z,24.98
2019-02-18T02:34:16.146Z,26.90
2019-02-18T02:35:50.957Z,26.65
2019-02-18T02:37:25.756Z,26.48
2019-02-18T02:39:00.553Z,25.00
2019-02-18T02:40:35.366Z,28.95
2019-02-18T02:42:10.459Z,25.80
2019-02-18T02:43:45.245Z,28.75
2019-02-18T02:45:20.052Z,29.72
2019-02-18T02:46:55.118Z,30.45
2019-02-18T02:48:29.910Z,31.30
2019-02-18T02:50:05.170Z,32.45
2019-02-18T02:51:40.244Z,30.55
2019-02-18T02:53:15.042Z,25.17
2019-02-18T02:54:49.859Z,24.52
2019-02-18T02:56:24.655Z,24.65
2019-02-18T02:57:59.541Z,25.35
2019-02-18T02:59:34.833Z,25.08
2019-02-18T03:01:09.742Z,28.15
2019-02-18T03:02:44.842Z,27.17
2019-02-18T03:04:19.642Z,27.42
2019-02-18T03:05:54.438Z,28.55
2019-02-18T03:07:29.524Z,28.80
2019-02-18T03:09:07.571Z,29.87
2019-02-18T03:10:42.373Z,29.87
2019-02-18T03:12:17.179Z,26.80
2019-02-18T03:13:55.860Z,27.95
2019-02-18T03:15:30.908Z,26.55
2019-02-18T03:17:05.846Z,27.17
2019-02-18T03:18:41.143Z,27.42
2019-02-18T03:20:16.108Z,24.72
2019-02-18T03:21:50.996Z,26.55
2019-02-18T03:23:25.845Z,29.75
2019-02-18T03:25:24.943Z,27.90
2019-02-18T03:26:59.817Z,27.07
2019-02-18T03:29:18.566Z,28.80
2019-02-18T03:31:17.686Z,34.13
2019-02-18T03:32:56.659Z,35.63
2019-02-18T03:34:57.025Z,33.80
2019-02-18T03:36:32.104Z,32.55
2019-02-18T03:38:07.173Z,33.05
2019-02-18T03:39:42.235Z,33.02
2019-02-18T03:41:17.330Z,32.55
2019-02-18T03:42:52.166Z,32.45
2019-02-18T03:44:27.445Z,30.70
2019-02-18T03:46:02.513Z,30.65
2019-02-18T03:47:37.807Z,28.73
2019-02-18T03:49:12.630Z,29.63
2019-02-18T03:50:47.508Z,28.98
2019-02-18T03:52:22.310Z,27.02
2019-02-18T03:53:57.304Z,24.70
2019-02-18T03:55:32.447Z,21.48
2019-02-18T03:57:07.546Z,19.52
2019-02-18T03:58:42.531Z,21.37
2019-02-18T04:00:17.925Z,21.15
2019-02-18T04:01:53.273Z,22.22
2019-02-18T04:03:28.236Z,27.85
2019-02-18T04:05:03.440Z,28.05
2019-02-18T04:06:38.476Z,28.35
2019-02-18T04:08:13.864Z,30.25
2019-02-18T04:09:48.764Z,28.95
2019-02-18T04:11:23.572Z,29.82
2019-02-18T04:12:58.375Z,27.70
2019-02-18T04:14:33.269Z,28.52
2019-02-18T04:16:11.859Z,27.17
2019-02-18T04:17:46.945Z,30.50
2019-02-18T04:19:21.978Z,28.83
2019-02-18T04:20:57.049Z,30.15
2019-02-18T04:22:32.154Z,31.50
2019-02-18T04:24:07.265Z,30.75
2019-02-18T04:25:42.349Z,30.15
2019-02-18T04:27:17.147Z,34.92
2019-02-18T04:28:51.946Z,35.83
2019-02-18T04:30:26.737Z,34.50
2019-02-18T04:32:01.549Z,38.05
2019-02-18T04:33:36.492Z,36.38
2019-02-18T04:35:11.307Z,35.20
2019-02-18T04:36:46.108Z,36.48
2019-02-18T04:38:21.172Z,35.43
2019-02-18T04:39:56.254Z,34.73
2019-02-18T04:41:31.057Z,34.05
2019-02-18T04:43:06.353Z,35.45
2019-02-18T04:44:41.153Z,34.13
2019-02-18T04:46:15.992Z,35.05
2019-02-18T04:47:51.019Z,38.02
2019-02-18T04:49:26.081Z,36.88
2019-02-18T04:51:01.113Z,34.10
2019-02-18T04:52:36.181Z,36.50
2019-02-18T04:54:11.225Z,38.85
2019-02-18T04:55:46.279Z,38.15
2019-02-18T04:57:21.080Z,39.60
2019-02-18T04:58:55.935Z,37.38
2019-02-18T05:00:30.740Z,41.73
2019-02-18T05:02:05.789Z,41.50
2019-02-18T05:03:40.820Z,39.42
2019-02-18T05:05:15.644Z,41.90
2019-02-18T05:06:50.447Z,40.88
2019-02-18T05:08:25.237Z,40.20
2019-02-18T05:10:00.042Z,42.00
2019-02-18T05:11:35.226Z,40.78
2019-02-18T05:13:10.298Z,40.88
2019-02-18T05:14:45.133Z,42.27
2019-02-18T05:16:19.935Z,42.73
2019-02-18T05:17:55.013Z,40.90
2019-02-18T05:19:29.804Z,40.70
2019-02-18T05:21:04.645Z,42.27
2019-02-18T05:22:39.431Z,42.78
2019-02-18T05:24:14.503Z,41.18
2019-02-18T05:25:49.281Z,41.13
2019-02-18T05:27:32.988Z,42.98
2019-02-18T05:29:00.855Z,43.05
2019-02-18T05:30:35.649Z,42.93
2019-02-18T05:32:10.447Z,43.10
2019-02-18T05:33:45.259Z,44.80
2019-02-18T05:35:20.064Z,43.38
2019-02-18T05:36:55.115Z,42.73
2019-02-18T05:38:30.202Z,44.23
2019-02-18T05:40:05.165Z,45.30
2019-02-18T05:41:40.461Z,43.35
2019-02-18T05:43:15.252Z,45.33
2019-02-18T05:44:50.417Z,44.50
2019-02-18T05:46:25.216Z,44.63
2019-02-18T05:48:00.250Z,44.95
2019-02-18T05:49:35.074Z,43.92
2019-02-18T05:51:10.205Z,44.90
2019-02-18T05:52:45.320Z,46.18
2019-02-18T05:54:20.107Z,45.58
2019-02-18T05:55:54.906Z,46.30
2019-02-18T05:57:29.949Z,45.70
2019-02-18T05:59:04.824Z,45.83
2019-02-18T06:00:39.852Z,46.95
2019-02-18T06:02:14.914Z,44.00
2019-02-18T06:03:49.989Z,44.45
2019-02-18T06:05:24.798Z,45.60
2019-02-18T06:06:59.861Z,45.17
2019-02-18T06:08:34.939Z,43.40
2019-02-18T06:10:10.058Z,45.30
2019-02-18T06:11:44.864Z,43.75
2019-02-18T06:13:19.669Z,44.85
2019-02-18T06:14:54.508Z,44.85
2019-02-18T06:16:29.579Z,45.20
2019-02-18T06:18:04.382Z,44.73
2019-02-18T06:19:39.443Z,45.45
2019-02-18T06:21:14.263Z,46.98
2019-02-18T06:22:49.310Z,46.23
2019-02-18T06:24:24.109Z,46.00
2019-02-18T06:25:58.913Z,45.45
2019-02-18T06:27:33.813Z,46.25
2019-02-18T06:29:08.606Z,46.80
2019-02-18T06:30:43.908Z,45.67
2019-02-18T06:32:18.982Z,48.42
2019-02-18T06:33:53.788Z,45.78
2019-02-18T06:35:29.065Z,46.42
2019-02-18T06:37:03.883Z,46.30
2019-02-18T06:38:38.930Z,45.52
2019-02-18T06:40:13.728Z,43.83
2019-02-18T06:41:48.791Z,44.85
2019-02-18T06:43:23.586Z,44.77
2019-02-18T06:45:35.851Z,44.73
2019-02-18T06:47:18.992Z,43.48
2019-02-18T06:49:28.012Z,43.30
2019-02-18T06:51:02.777Z,41.53
2019-02-18T06:52:37.324Z,40.83
2019-02-18T06:54:12.030Z,43.28
2019-02-18T06:55:46.735Z,41.33
2019-02-18T06:57:28.955Z,42.10
2019-02-18T06:59:13.203Z,41.92
2019-02-18T07:01:04.447Z,39.15
2019-02-18T07:02:57.929Z,40.08
2019-02-18T07:05:03.512Z,39.58
2019-02-18T07:06:44.526Z,40.70
2019-02-18T07:08:38.248Z,41.75
2019-02-18T07:10:18.949Z,38.53
2019-02-18T07:12:01.992Z,41.20
2019-02-18T07:13:37.036Z,40.00
2019-02-18T07:15:11.834Z,39.45
2019-02-18T07:16:46.633Z,41.50
2019-02-18T07:18:21.529Z,42.60
2019-02-18T07:19:56.326Z,43.10
2019-02-18T07:21:31.135Z,40.88
2019-02-18T07:23:06.017Z,42.60
2019-02-18T07:24:41.142Z,42.80
2019-02-18T07:26:16.199Z,43.17
2019-02-18T07:27:50.995Z,42.40
2019-02-18T07:29:25.942Z,43.65
2019-02-18T07:31:00.741Z,43.63
2019-02-18T07:32:35.534Z,42.95
2019-02-18T07:34:10.566Z,43.28
2019-02-18T07:35:45.367Z,45.43
2019-02-18T07:37:20.436Z,44.98
2019-02-18T07:38:55.312Z,44.65
2019-02-18T07:40:30.127Z,43.55
2019-02-18T07:42:04.618Z,45.33
2019-02-18T07:43:39.398Z,43.75
2019-02-18T07:45:14.263Z,44.95
2019-02-18T07:46:49.057Z,43.45
2019-02-18T07:48:23.854Z,42.45
2019-02-18T07:49:58.676Z,44.42
2019-02-18T07:51:33.497Z,44.10
2019-02-18T07:53:09.025Z,42.90
2019-02-18T07:54:44.074Z,45.05
2019-02-18T07:56:18.870Z,46.20
2019-02-18T07:57:53.913Z,46.28
2019-02-18T07:59:28.734Z,44.25
2019-02-18T08:01:03.611Z,45.40
2019-02-18T08:02:38.644Z,46.10
2019-02-18T08:04:14.006Z,45.05
2019-02-18T08:05:48.952Z,43.50
2019-02-18T08:07:23.328Z,45.88
2019-02-18T08:08:57.716Z,47.90
2019-02-18T08:10:32.216Z,44.33
2019-02-18T08:12:06.924Z,47.50
2019-02-18T08:13:41.323Z,44.55
2019-02-18T08:15:15.838Z,47.08
2019-02-18T08:16:50.237Z,45.17
2019-02-18T08:18:25.266Z,45.75
2019-02-18T08:20:00.110Z,46.63
2019-02-18T08:21:34.737Z,47.03
2019-02-18T08:23:09.530Z,46.90
2019-02-18T08:24:44.473Z,46.10
2019-02-18T08:26:18.920Z,45.25
2019-02-18T08:27:53.702Z,47.40
2019-02-18T08:29:28.764Z,46.18
2019-02-18T08:31:03.805Z,46.75
2019-02-18T08:32:38.872Z,47.60
2019-02-18T08:34:14.183Z,47.13
2019-02-18T08:35:48.983Z,45.40
2019-02-18T08:37:23.804Z,46.88
2019-02-18T08:38:59.095Z,47.33
2019-02-18T08:40:33.914Z,46.55
2019-02-18T08:42:09.134Z,45.85
2019-02-18T08:43:44.183Z,46.30
2019-02-18T08:45:18.980Z,46.02
2019-02-18T08:46:54.073Z,46.53
2019-02-18T08:48:28.868Z,47.48
2019-02-18T08:50:03.990Z,45.38
2019-02-18T08:51:38.792Z,45.43
2019-02-18T08:53:13.674Z,46.10
2019-02-18T08:54:56.238Z,45.85
2019-02-18T08:56:25.123Z,48.08
2019-02-18T08:57:59.547Z,45.85
2019-02-18T08:59:33.982Z,47.53
2019-02-18T09:01:08.383Z,46.30
2019-02-18T09:02:43.258Z,44.93
2019-02-18T09:04:18.094Z,45.70
2019-02-18T09:05:52.560Z,45.75
2019-02-18T09:07:27.187Z,43.47
2019-02-18T09:09:01.673Z,44.60
2019-02-18T09:10:36.065Z,45.30
2019-02-18T09:12:10.551Z,45.07
2019-02-18T09:13:44.941Z,43.40
2019-02-18T09:15:20.031Z,44.47
2019-02-18T09:16:54.917Z,46.40
2019-02-18T09:18:29.977Z,43.77
2019-02-18T09:20:05.270Z,45.53
2019-02-18T09:21:40.564Z,44.30
2019-02-18T09:23:23.423Z,44.47
2019-02-18T09:25:04.440Z,45.37
2019-02-18T09:26:39.248Z,45.73
2019-02-18T09:28:14.317Z,43.43
2019-02-18T09:29:49.639Z,43.70
2019-02-18T09:31:30.087Z,43.93
2019-02-18T09:33:04.933Z,44.17
2019-02-18T09:34:39.994Z,43.80
2019-02-18T09:36:15.035Z,44.73
2019-02-18T09:37:49.857Z,42.00
2019-02-18T09:39:31.261Z,43.17
2019-02-18T09:41:01.474Z,43.27
2019-02-18T09:42:35.896Z,43.40
2019-02-18T09:44:10.532Z,43.97
2019-02-18T09:45:45.027Z,41.23
2019-02-18T09:47:19.571Z,42.57
2019-02-18T09:48:54.238Z,42.87
2019-02-18T09:50:28.781Z,43.23
2019-02-18T09:52:03.688Z,42.90
2019-02-18T09:53:38.438Z,41.27
2019-02-18T09:55:12.823Z,43.43
2019-02-18T09:56:47.745Z,42.70
2019-02-18T09:58:22.180Z,42.83
2019-02-18T09:59:56.563Z,43.60
2019-02-18T10:01:30.947Z,45.37
2019-02-18T10:03:05.681Z,42.67
2019-02-18T10:04:40.323Z,43.73
2019-02-18T10:06:15.127Z,43.47
2019-02-18T10:07:50.060Z,42.50
2019-02-18T10:09:24.872Z,43.83
2019-02-18T10:11:00.175Z,43.27
2019-02-18T10:12:35.004Z,43.80
2019-02-18T10:14:09.960Z,43.40
2019-02-18T10:15:44.771Z,44.63
2019-02-18T10:17:19.600Z,43.43
2019-02-18T10:18:54.681Z,42.50
2019-02-18T10:20:29.987Z,42.63
2019-02-18T10:22:04.407Z,40.97
2019-02-18T10:23:39.505Z,42.83
2019-02-18T10:25:14.546Z,42.50
2019-02-18T10:26:49.389Z,43.27
2019-02-18T10:28:24.207Z,44.00
2019-02-18T10:29:59.271Z,42.93
2019-02-18T10:31:34.075Z,41.00
2019-02-18T10:33:08.891Z,41.57
2019-02-18T10:34:43.961Z,43.93
2019-02-18T10:36:19.020Z,43.27
2019-02-18T10:38:31.585Z,42.63
2019-02-18T10:40:11.604Z,43.97
2019-02-18T10:41:47.420Z,42.30
2019-02-18T10:43:31.886Z,42.10
2019-02-18T10:45:00.898Z,43.23
2019-02-18T10:46:36.245Z,43.30
2019-02-18T10:48:11.074Z,44.57
2019-02-18T10:49:47.924Z,42.83
2019-02-18T10:51:22.768Z,42.87
2019-02-18T10:53:01.237Z,42.70
2019-02-18T10:55:14.334Z,43.63
2019-02-18T10:56:49.591Z,41.07
2019-02-18T10:58:24.728Z,42.33
2019-02-18T11:00:31.381Z,42.97
2019-02-18T11:02:36.177Z,41.93
2019-02-18T11:04:11.716Z,43.20
2019-02-18T11:06:33.714Z,41.80
2019-02-18T11:08:15.166Z,40.20
2019-02-18T11:10:22.561Z,40.00
2019-02-18T11:12:33.162Z,41.93
2019-02-18T11:14:08.269Z,40.77
2019-02-18T11:15:43.596Z,39.47
2019-02-18T11:17:22.207Z,40.60
2019-02-18T11:18:57.093Z,40.07
2019-02-18T11:20:32.407Z,39.87
2019-02-18T11:22:07.225Z,42.40
2019-02-18T11:23:42.578Z,42.13
2019-02-18T11:25:17.803Z,39.70
2019-02-18T11:26:52.618Z,40.93
2019-02-18T11:28:27.694Z,40.57
2019-02-18T11:30:02.822Z,40.90
2019-02-18T11:31:37.879Z,40.63
2019-02-18T11:33:13.193Z,42.17
2019-02-18T11:34:48.266Z,40.67
2019-02-18T11:36:23.362Z,42.70
2019-02-18T11:37:58.243Z,39.53
2019-02-18T11:39:33.045Z,41.23
2019-02-18T11:41:07.937Z,40.73
2019-02-18T11:42:43.052Z,39.67
2019-02-18T11:44:18.141Z,39.83
2019-02-18T11:45:53.450Z,40.30
2019-02-18T11:47:28.271Z,39.90
2019-02-18T11:49:03.079Z,40.77
2019-02-18T11:50:38.412Z,40.40
2019-02-18T11:52:13.855Z,40.23
2019-02-18T11:53:49.178Z,40.53
2019-02-18T11:55:24.264Z,40.27
2019-02-18T11:56:59.326Z,39.17
2019-02-18T11:58:34.223Z,39.57
2019-02-18T12:00:10.986Z,38.93
2019-02-18T12:01:46.069Z,37.60
2019-02-18T12:03:20.876Z,37.80
2019-02-18T12:04:55.950Z,38.63
2019-02-18T12:06:30.760Z,39.50
2019-02-18T12:08:05.600Z,36.90
2019-02-18T12:09:40.678Z,37.50
2019-02-18T12:11:15.483Z,37.60
2019-02-18T12:12:50.290Z,37.90
2019-02-18T12:14:27.340Z,36.97
2019-02-18T12:16:01.938Z,37.83
2019-02-18T12:17:37.198Z,37.13
2019-02-18T12:19:12.081Z,37.77
2019-02-18T12:20:46.884Z,36.47
2019-02-18T12:22:21.973Z,36.77
2019-02-18T12:23:57.024Z,36.87
2019-02-18T12:25:32.078Z,38.33
2019-02-18T12:27:06.901Z,37.30
2019-02-18T12:28:41.722Z,36.97
2019-02-18T12:30:16.891Z,36.87
2019-02-18T12:31:51.700Z,36.73
2019-02-18T12:33:26.772Z,35.80
2019-02-18T12:35:01.858Z,37.10
2019-02-18T12:36:36.650Z,37.33
2019-02-18T12:38:11.698Z,37.43
2019-02-18T12:39:47.605Z,37.00
2019-02-18T12:41:22.678Z,36.33
2019-02-18T12:42:57.499Z,36.10
2019-02-18T12:44:32.315Z,37.20
2019-02-18T12:46:15.513Z,36.73
2019-02-18T12:47:44.318Z,37.43
2019-02-18T12:49:19.134Z,38.27
2019-02-18T12:50:54.361Z,36.47
2019-02-18T12:52:29.506Z,36.03
2019-02-18T12:54:05.301Z,36.17
2019-02-18T12:55:40.290Z,36.40
2019-02-18T12:57:15.419Z,36.73
2019-02-18T12:58:54.683Z,35.40
2019-02-18T13:00:26.839Z,35.57
2019-02-18T13:02:01.896Z,34.67
2019-02-18T13:03:36.975Z,33.57
2019-02-18T13:05:13.717Z,36.57
2019-02-18T13:06:48.853Z,36.63
2019-02-18T13:08:25.126Z,34.90
2019-02-18T13:10:00.337Z,34.80
2019-02-18T13:11:35.441Z,34.90
2019-02-18T13:13:10.558Z,34.97
2019-02-18T13:14:45.377Z,34.87
2019-02-18T13:16:20.212Z,34.43
2019-02-18T13:17:55.065Z,34.40
2019-02-18T13:19:30.120Z,34.37
2019-02-18T13:21:05.899Z,33.67
2019-02-18T13:22:41.125Z,34.83
2019-02-18T13:24:16.032Z,35.47
2019-02-18T13:25:50.843Z,35.43
2019-02-18T13:27:25.757Z,35.73
2019-02-18T13:29:00.585Z,34.20
2019-02-18T13:30:35.670Z,33.40
2019-02-18T13:32:10.471Z,33.97
2019-02-18T13:33:45.758Z,33.73
2019-02-18T13:35:20.727Z,33.37
2019-02-18T13:36:58.251Z,33.47
2019-02-18T13:38:33.589Z,32.33
2019-02-18T13:40:09.225Z,33.60
2019-02-18T13:41:44.044Z,33.67
2019-02-18T13:43:19.205Z,32.83
2019-02-18T13:44:54.283Z,32.07
2019-02-18T13:46:29.384Z,32.33
2019-02-18T13:48:04.479Z,31.30
2019-02-18T13:49:39.271Z,31.67
2019-02-18T13:51:14.354Z,31.33
2019-02-18T13:52:49.161Z,30.57
2019-02-18T13:54:24.208Z,31.57
2019-02-18T13:55:59.504Z,30.70
2019-02-18T13:57:34.789Z,30.13
2019-02-18T13:59:09.736Z,31.60
2019-02-18T14:00:44.550Z,31.37
2019-02-18T14:02:19.433Z,31.77
2019-02-18T14:03:54.253Z,31.60
2019-02-18T14:05:29.071Z,30.73
2019-02-18T14:07:04.377Z,29.83
2019-02-18T14:08:39.477Z,29.73
2019-02-18T14:10:14.666Z,30.60
2019-02-18T14:11:49.878Z,29.37
2019-02-18T14:13:24.764Z,29.27
2019-02-18T14:14:59.593Z,30.50
2019-02-18T14:16:34.999Z,29.53
2019-02-18T14:18:09.891Z,29.27
2019-02-18T14:19:45.054Z,29.30
2019-02-18T14:21:20.262Z,29.13
2019-02-18T14:22:55.134Z,29.13
2019-02-18T14:24:30.018Z,30.07
2019-02-18T14:26:05.012Z,28.63
2019-02-18T14:27:40.158Z,29.47
2019-02-18T14:29:15.270Z,28.70
2019-02-18T14:30:50.337Z,29.50
2019-02-18T14:32:25.414Z,27.57
2019-02-18T14:34:00.223Z,27.93
2019-02-18T14:35:35.518Z,28.97
2019-02-18T14:37:10.325Z,29.23
2019-02-18T14:38:45.375Z,28.70
2019-02-18T14:40:21.682Z,28.90
2019-02-18T14:41:56.514Z,29.93
2019-02-18T14:43:31.784Z,28.43
2019-02-18T14:45:06.943Z,28.40
2019-02-18T14:46:41.810Z,28.27
2019-02-18T14:48:16.885Z,28.63
2019-02-18T14:49:52.377Z,27.13
2019-02-18T14:51:27.458Z,27.70
2019-02-18T14:53:02.785Z,28.13
2019-02-18T14:54:37.587Z,26.63
2019-02-18T14:56:14.190Z,26.50
2019-02-18T14:57:49.278Z,27.70
2019-02-18T14:59:24.637Z,26.60
2019-02-18T15:00:59.776Z,27.57
2019-02-18T15:02:34.862Z,26.83
2019-02-18T15:04:09.671Z,26.00
2019-02-18T15:05:44.791Z,26.13
2019-02-18T15:07:19.845Z,24.57
2019-02-18T15:08:55.008Z,24.87
2019-02-18T15:10:29.909Z,25.93
2019-02-18T15:12:04.896Z,26.13
2019-02-18T15:13:40.421Z,24.40
2019-02-18T15:15:15.795Z,25.30
2019-02-18T15:16:51.169Z,25.00
2019-02-18T15:18:26.484Z,25.67
2019-02-18T15:20:01.531Z,24.40
2019-02-18T15:21:36.647Z,25.23
2019-02-18T15:23:11.438Z,24.73
2019-02-18T15:24:45.923Z,24.83
2019-02-18T15:26:21.144Z,24.17
2019-02-18T15:27:56.468Z,23.70
2019-02-18T15:29:31.882Z,23.93
2019-02-18T15:31:06.769Z,23.27
2019-02-18T15:32:41.864Z,24.47
2019-02-18T15:34:17.040Z,23.27
2019-02-18T15:35:52.118Z,22.40
2019-02-18T15:37:27.002Z,22.53
2019-02-18T15:39:01.917Z,23.40
2019-02-18T15:40:37.634Z,22.67
2019-02-18T15:42:12.698Z,22.80
2019-02-18T15:43:47.846Z,22.93
2019-02-18T15:45:23.000Z,21.87
2019-02-18T15:46:58.582Z,21.77
2019-02-18T15:48:33.396Z,22.20
2019-02-18T15:50:09.520Z,22.23
2019-02-18T15:51:44.603Z,21.67
2019-02-18T15:53:19.681Z,21.60
2019-02-18T15:54:54.762Z,21.60
2019-02-18T15:56:29.911Z,21.17
2019-02-18T15:58:04.997Z,22.17
2019-02-18T15:59:40.283Z,21.13
2019-02-18T16:01:15.174Z,22.53
2019-02-18T16:02:50.286Z,21.83
2019-02-18T16:04:25.099Z,22.53
2019-02-18T16:05:59.914Z,23.23
2019-02-18T16:07:35.241Z,23.23
2019-02-18T16:09:10.367Z,23.60
2019-02-18T16:10:45.083Z,23.27
2019-02-18T16:12:19.909Z,23.43
2019-02-18T16:13:55.010Z,23.50
2019-02-18T16:15:29.822Z,22.80
2019-02-18T16:17:04.628Z,23.33
2019-02-18T16:18:39.447Z,23.27
2019-02-18T16:20:15.273Z,23.57
2019-02-18T16:21:50.252Z,24.03
2019-02-18T16:23:25.311Z,25.63
2019-02-18T16:25:00.307Z,25.10
2019-02-18T16:26:35.681Z,24.07
2019-02-18T16:28:11.061Z,24.07
2019-02-18T16:29:45.872Z,27.20
2019-02-18T16:31:20.764Z,24.87
2019-02-18T16:32:55.581Z,24.17
2019-02-18T16:34:30.658Z,23.97
2019-02-18T16:36:05.464Z,24.80
2019-02-18T16:37:40.258Z,23.43
2019-02-18T16:39:15.136Z,23.87
2019-02-18T16:40:50.217Z,25.40
2019-02-18T16:42:25.630Z,25.00
2019-02-18T16:44:00.876Z,24.30
2019-02-18T16:45:36.448Z,25.63
2019-02-18T16:47:11.643Z,25.27
2019-02-18T16:48:46.466Z,26.12
2019-02-18T16:50:21.598Z,25.23
2019-02-18T16:51:56.408Z,25.27
2019-02-18T16:53:31.974Z,26.12
2019-02-18T16:55:08.844Z,24.32
2019-02-18T16:56:43.646Z,25.67
2019-02-18T16:58:18.468Z,25.80
2019-02-18T16:59:53.305Z,26.02
2019-02-18T17:01:28.382Z,25.43
2019-02-18T17:03:03.314Z,26.55
2019-02-18T17:04:38.137Z,25.77
2019-02-18T17:06:13.614Z,27.10
2019-02-18T17:07:48.662Z,27.45
2019-02-18T17:09:23.469Z,27.00
2019-02-18T17:10:59.022Z,27.55
2019-02-18T17:12:33.852Z,26.52
2019-02-18T17:14:09.044Z,26.52
2019-02-18T17:15:43.862Z,27.45
2019-02-18T17:17:18.690Z,27.32
2019-02-18T17:18:53.751Z,25.68
2019-02-18T17:20:28.852Z,25.55
2019-02-18T17:22:03.644Z,25.60
2019-02-18T17:23:38.466Z,25.12
2019-02-18T17:25:13.388Z,27.55
2019-02-18T17:26:48.176Z,26.52
2019-02-18T17:28:23.254Z,27.60
2019-02-18T17:29:58.290Z,26.73
2019-02-18T17:31:33.094Z,26.40
2019-02-18T17:33:08.152Z,26.55
2019-02-18T17:34:42.960Z,25.72
2019-02-18T17:36:17.771Z,24.80
2019-02-18T17:37:52.292Z,25.48
2019-02-18T17:39:26.782Z,25.60
2019-02-18T17:41:01.561Z,26.27
2019-02-18T17:42:36.486Z,27.30
2019-02-18T17:44:19.789Z,25.88
2019-02-18T17:45:47.691Z,25.32
2019-02-18T17:47:22.838Z,24.72
2019-02-18T17:48:58.141Z,25.10
2019-02-18T17:50:32.946Z,23.65
2019-02-18T17:52:08.301Z,23.83
2019-02-18T17:53:43.370Z,23.73
2019-02-18T17:55:18.375Z,23.22
2019-02-18T17:56:53.513Z,25.35
2019-02-18T17:58:28.215Z,24.20
2019-02-18T18:00:03.605Z,23.38
2019-02-18T18:01:38.493Z,25.40
2019-02-18T18:03:13.585Z,24.57
2019-02-18T18:04:48.686Z,24.47
2019-02-18T18:06:23.752Z,25.12
2019-02-18T18:07:58.563Z,25.35
2019-02-18T18:09:33.692Z,25.35
2019-02-18T18:11:08.713Z,24.43
2019-02-18T18:12:43.784Z,23.83
2019-02-18T18:14:18.587Z,25.43
2019-02-18T18:15:53.400Z,26.35
2019-02-18T18:17:28.684Z,24.55
2019-02-18T18:19:09.055Z,25.40
2019-02-18T18:20:40.125Z,26.10
2019-02-18T18:22:14.954Z,24.85
2019-02-18T18:23:49.769Z,25.43
2019-02-18T18:25:24.824Z,24.87
2019-02-18T18:26:59.639Z,25.23
2019-02-18T18:28:34.925Z,25.72
2019-02-18T18:30:11.825Z,26.17
2019-02-18T18:31:46.876Z,26.93
2019-02-18T18:33:21.706Z,26.68
2019-02-18T18:34:56.525Z,27.55
2019-02-18T18:36:31.319Z,28.50
2019-02-18T18:38:06.493Z,28.02
2019-02-18T18:39:41.324Z,28.62
2019-02-18T18:41:16.397Z,29.40
2019-02-18T18:42:51.444Z,27.65
2019-02-18T18:44:26.245Z,27.35
2019-02-18T18:46:01.316Z,27.73
2019-02-18T18:47:36.119Z,27.73
2019-02-18T18:49:10.928Z,26.87
2019-02-18T18:50:46.287Z,27.35
2019-02-18T18:52:21.105Z,27.37
2019-02-18T18:53:55.924Z,28.15
2019-02-18T18:55:30.748Z,27.25
2019-02-18T18:57:05.543Z,28.52
2019-02-18T18:58:40.642Z,27.37
2019-02-18T19:00:18.854Z,28.02
2019-02-18T19:01:53.354Z,28.90
2019-02-18T19:03:27.866Z,27.02
2019-02-18T19:05:02.282Z,28.83
2019-02-18T19:06:36.747Z,29.02
2019-02-18T19:08:11.334Z,28.52
2019-02-18T19:09:45.987Z,28.70
2019-02-18T19:11:21.655Z,27.98
2019-02-18T19:12:56.798Z,26.73
2019-02-18T19:14:31.606Z,28.27
2019-02-18T19:16:06.693Z,29.95
2019-02-18T19:17:41.779Z,27.87
2019-02-18T19:19:16.966Z,28.42
2019-02-18T19:20:52.041Z,28.20
2019-02-18T19:22:27.106Z,29.05
2019-02-18T19:24:03.534Z,29.18
2019-02-18T19:25:38.539Z,30.02
2019-02-18T19:27:13.596Z,28.35
2019-02-18T19:28:48.391Z,28.77
2019-02-18T19:30:26.677Z,28.92
2019-02-18T19:32:01.496Z,28.52
2019-02-18T19:33:36.331Z,28.65
2019-02-18T19:35:11.408Z,28.98
2019-02-18T19:36:46.303Z,30.82
2019-02-18T19:38:21.433Z,29.75
2019-02-18T19:39:56.558Z,28.52
2019-02-18T19:41:31.858Z,29.82
2019-02-18T19:43:06.882Z,30.02
2019-02-18T19:44:41.760Z,27.93
2019-02-18T19:46:16.817Z,30.35
2019-02-18T19:47:52.055Z,29.67
2019-02-18T19:49:26.852Z,28.95
2019-02-18T19:51:01.964Z,28.57
2019-02-18T19:52:36.757Z,28.85
2019-02-18T19:54:11.961Z,29.05
2019-02-18T19:55:47.343Z,29.45
2019-02-18T19:57:22.469Z,29.25
2019-02-18T19:58:57.519Z,29.15
2019-02-18T20:00:32.884Z,29.10
2019-02-18T20:02:08.091Z,27.40
2019-02-18T20:03:43.551Z,28.47
2019-02-18T20:05:18.765Z,27.73
2019-02-18T20:06:53.569Z,28.40
2019-02-18T20:08:28.404Z,27.00
2019-02-18T20:10:03.573Z,28.02
2019-02-18T20:11:38.653Z,28.67
2019-02-18T20:13:13.573Z,30.97
2019-02-18T20:14:49.037Z,29.50
2019-02-18T20:16:23.839Z,30.68
2019-02-18T20:17:59.122Z,29.85
2019-02-18T20:19:34.192Z,30.72
2019-02-18T20:21:09.263Z,30.20
2019-02-18T20:22:44.472Z,31.27
2019-02-18T20:24:19.702Z,32.58
2019-02-18T20:25:54.996Z,31.07
2019-02-18T20:27:29.924Z,31.17
2019-02-18T20:29:04.726Z,29.95
2019-02-18T20:30:39.795Z,31.27
2019-02-18T20:32:14.661Z,28.80
2019-02-18T20:33:49.867Z,31.45